Pierceton, IN (46562)

2:01 PM EDT on March 30, 2017 (GMT -0400)
Larwill North | | Change Station
Active Advisory: Flood Warning

Elev 951 ft 41.19 °N, 85.63 °W | Updated 2 seconds ago

Mostly Cloudy
Mostly Cloudy
43.0 °F
Feels Like 41 °F
N
4.0
Wind Variable Wind from ESE

Today
High -- | Low -- °F
--% Chance of Precip.
Yesterday
High -- | Low -- °F
Precip. -- in
Pressure 29.71 in
Visibility 10.0 miles
Clouds Mostly Cloudy 1000 ft
Mostly Cloudy 3800 ft
Overcast 4400 ft
Windchill 41 °F
Dew Point 42 °F
Humidity 98%
Rainfall 0.56 in
Snow Depth Not available.
7:28 AM 8:06 PM
Waxing Crescent, 10% visible
METAR KASW 301755Z AUTO 10012G17KT 10SM -RA BKN010 BKN038 OVC044 06/05 A2971 RMK AO2
Pressure 29.71 in
Visibility 10.0 miles
Clouds Mostly Cloudy 1000 ft
Mostly Cloudy 3800 ft
Overcast 4400 ft
Windchill 41 °F
Dew Point 42 °F
Humidity 98%
Rainfall 0.56 in
Snow Depth Not available.
7:28 AM 8:06 PM
Waxing Crescent, 10% visible
METAR KASW 301755Z AUTO 10012G17KT 10SM -RA BKN010 BKN038 OVC044 06/05 A2971 RMK AO2

Get Your Daily Forecast Email!

Thanks for signing up!

Be on the lookout for a verification email in your inbox.

You'll start receiving severe weather alerts in your inbox..

×

10-Day Weather Forecast

Almanac

Astronomy

Mar. 30, 2017 Rise Set
Actual Time
Civil Twilight
Nautical Twilight
Astronomical Twilight
Moon
Length of Visible Light
Length of Day
Tomorrow will be .
, % of the Moon is Illuminated

Today's Extremes

State Highs State Lows

Community

WunderPhotos

Upload Photos

1,962,540 photos uploaded!

WunderBlog® & News

Nearby

Air Quality

  Air Quality AQ Index Pollutant
Not available.

Snow Depth

Station Depth Elevation

Earthquake Activity

City Distance Mag. Time & Date
Minimum magnitude displayed is 2.5.

Earthquake Activity

City Distance Mag. Time & Date
Minimum magnitude displayed is 2.5.

Coastal Water Temperatures

Place Temperature

Stations

Nearby Weather Stations

Station Location Temp. Windchill Dew Point Humidity Wind Precip. Elev Updated Type
                   

Watches & Warnings

Flood Warning
Issued: 11:36 AM EDT Mar. 30, 2017 – National Weather Service

The National Weather Service in northern Indiana has issued a

* Flood Warning for
the Eel River at North Manchester
* from Friday morning to Saturday evening.
* At 10 am Thursday the stage was 4.1 feet and steady.
* Minor flooding is forecast.
* Flood stage is 9.0 feet.
* Forecast... the river will rise above flood stage Friday morning
and crest near 9.4 feet around 2 PM Friday March 31 and fall below
flood stage around 8 PM Friday March 31.
* At 9.0 feet... the river is at flood stage... minor agricultural
flooding occurs.
* This crest compares to a previous crest of 9.1 feet which occurred
on Apr 12 2013.


Lat... Lon 4076 8635 4097 8592 4102 8577 4099 8577
      4087 8599 4072 8631